Segovia, Texas
Current Conditions -  °F | °C
As of 11:51 PM on Saturday 22 Nov 2014 (Local Time) from KJCT Reporting Station
Clear Clear  
Wind Chill: 55°   Ceiling: Unl
Heat Index: 55°   Visibility: 10mi
Dew Point: 53°   Wind: 3mph
Humidity: 93%   Direction: 310°NW
Pressure: 29.77"   Gusts: NA
Location:  30.4083°N, 99.5794°W
Report Text: KJCT 230551Z AUTO 31003KT 10SM CLR 13/12 A2977 RMK AO2 SLP053 60001 T01280117 10206 20122 402330122 56025
Loading
Personal Weather Stations






























Interactive Weather Map New forecast layout! Learn more

10-Day Weather Forecast

Advertisements
Track Severe Weather on mobile